METAR (acronimo di METeorological Air Report) è un messaggio meteo emesso nella maggior parte dei casi in ambito aeroportuale

LIPF - Ferrara, It
Distanza dalla Stazione: 8 km
Ultimo Aggiornamento: Martedì 23 Luglio 2019 19:55 CEST
Dati non Recenti
Sereno
Sereno
 Wind from varies
Vento: variabile 0 km/h
Temperatura: 32°C
Heat Index: 34°C
Punto di Rugiada: 20°C
Umidità: 49%
Barometro: 1017 hPa
Condizioni: Sereno
Visibilità: superiore a 10 km
2019/07/23 17:55 LIPF 231755Z /////KT CAVOK 32/20 Q1017
LIPE - Bologna Borgo Panigale, It
Distanza dalla Stazione: 46 km
Ultimo Aggiornamento: Mercoledì 24 Luglio 2019 03:50 CEST
Sereno
Sereno
 Wind from Sud-Sud-Ovest
Vento: Sud-Sud-Ovest 11 km/h
Temperatura: 24°C
Punto di Rugiada: 19°C
Umidità: 74%
Barometro: 1016 hPa
Condizioni: Sereno
Visibilità: superiore a 10 km
2019/07/24 01:50 LIPE 240150Z 20006KT CAVOK 24/19 Q1016
LIMF - Torino Caselle, It
Distanza dalla Stazione: 320 km
Ultimo Aggiornamento: Mercoledì 24 Luglio 2019 03:50 CEST
Sereno
Sereno
 Wind from varies
Vento: variabile 4 km/h
Temperatura: 25°C
Punto di Rugiada: 21°C
Umidità: 79%
Barometro: 1018 hPa
Condizioni: Sereno
Visibilità: superiore a 10 km
2019/07/24 01:50 LIMF 240150Z VRB02KT CAVOK 25/21 Q1018
 
LIML - Milano Malpensa, It
Distanza dalla Stazione: 249 km
Ultimo Aggiornamento: Mercoledì 24 Luglio 2019 03:50 CEST
Sereno
Sereno
 Wind from varies
Vento: variabile 2 km/h
Temperatura: 25°C
Punto di Rugiada: 22°C
Umidità: 83%
Barometro: 1017 hPa
Nuvole: Sereno
Visibilità: 7 km
2019/07/24 01:50 LIML 240150Z AUTO VRB01KT 7000 NCD 25/22 Q1017
LIME - Bergamo Orio al Serio, It
Distanza dalla Stazione: 181 km
Ultimo Aggiornamento: Mercoledì 24 Luglio 2019 02:50 CEST
Dati non Recenti
Sereno
Sereno
 Wind from Nord-Nord-Est
Vento: Nord-Nord-Est 9 km/h
Temperatura: 25°C
Punto di Rugiada: 21°C
Umidità: 79%
Barometro: 1018 hPa
Condizioni: Sereno
Visibilità: superiore a 10 km
2019/07/24 00:50 LIME 240050Z 02005KT CAVOK 25/21 Q1018 NOSIG
LIPZ - Venezia Tessera, It
Distanza dalla Stazione: 93 km
Ultimo Aggiornamento: Mercoledì 24 Luglio 2019 03:50 CEST
Sereno
Sereno
 Wind from varies
Vento: variabile 2 km/h
Temperatura: 26°C
Punto di Rugiada: 20°C
Umidità: 70%
Barometro: 1016 hPa
Condizioni: Sereno
Visibilità: superiore a 10 km
2019/07/24 01:50 LIPZ 240150Z VRB01KT CAVOK 26/20 Q1016 NOSIG
 
LIVT - Trieste, It
Distanza dalla Stazione: 179 km
Ultimo Aggiornamento: Mercoledì 24 Luglio 2019 03:55 CEST
Sereno
Sereno
 Wind from Nord-Est
Vento: Nord-Est 7 km/h
Temperatura: 25°C
Punto di Rugiada: 19°C
Umidità: 69%
Barometro: 1016 hPa
Condizioni: Sereno
Visibilità: superiore a 10 km
2019/07/24 01:55 LIVT 240155Z 04004KT CAVOK 25/19 Q1016 RMK SKC QUK / QUL / VIS MAR 20 KM VIS MIN 9999
LIMJ - Genova, It
Distanza dalla Stazione: 229 km
Ultimo Aggiornamento: Mercoledì 24 Luglio 2019 03:50 CEST
Sereno
Sereno
 Wind from varies
Vento: variabile 2 km/h
Temperatura: 27°C
Heat Index: 29°C
Punto di Rugiada: 21°C
Umidità: 70%
Barometro: 1015 hPa
Condizioni: Sereno
Visibilità: superiore a 10 km
2019/07/24 01:50 LIMJ 240150Z VRB01KT CAVOK 27/21 Q1015
LIRQ - Firenze Amerigo Vespucci, It
Distanza dalla Stazione: 119 km
Ultimo Aggiornamento: Mercoledì 24 Luglio 2019 03:20 CEST
Sereno
Sereno
 Wind from varies
Vento: variabile 2 km/h
Temperatura: 24°C
Punto di Rugiada: 18°C
Umidità: 69%
Barometro: 1016 hPa
Condizioni: Sereno
Visibilità: superiore a 10 km
2019/07/24 01:20 LIRQ 240120Z VRB01KT CAVOK 24/18 Q1016
 
LIPY - Ancona, It
Distanza dalla Stazione: 189 km
Ultimo Aggiornamento: Mercoledì 24 Luglio 2019 03:50 CEST
Sereno
Sereno
 Wind from Sud
Vento: Sud 6 km/h
Temperatura: 21°C
Punto di Rugiada: 17°C
Umidità: 78%
Barometro: 1016 hPa
Nuvole: Sereno
Visibilità: 10 km
2019/07/24 01:50 LIPY 240150Z AUTO 18003KT 9999 NCD 21/17 Q1016
LIBP - Pescara, It
Distanza dalla Stazione: 333 km
Ultimo Aggiornamento: Mercoledì 24 Luglio 2019 03:50 CEST
Sereno
Sereno
 Wind from Ovest-Sud-Ovest
Vento: Ovest-Sud-Ovest 11 km/h
Temperatura: 21°C
Punto di Rugiada: 15°C
Umidità: 69%
Barometro: 1017 hPa
Nuvole: Sereno
Visibilità: 10 km
2019/07/24 01:50 LIBP 240150Z AUTO 25006KT 9999 NCD 21/15 Q1017
LIRF - Roma-Fiumicino, It
Distanza dalla Stazione: 334 km
Ultimo Aggiornamento: Mercoledì 24 Luglio 2019 03:50 CEST
Sereno
Sereno
 Wind from Est
Vento: Est 6 km/h
Temperatura: 22°C
Punto di Rugiada: 21°C
Umidità: 94%
Barometro: 1015 hPa
Condizioni: Sereno
Visibilità: superiore a 10 km
2019/07/24 01:50 LIRF 240150Z 10003KT CAVOK 22/21 Q1015 NOSIG
 
LIRN - Napoli Capodichino, It
Distanza dalla Stazione: 494 km
Ultimo Aggiornamento: Mercoledì 24 Luglio 2019 03:50 CEST
Sereno
Sereno
 Wind from Nord-Est
Vento: Nord-Est 7 km/h
Temperatura: 26°C
Punto di Rugiada: 11°C
Umidità: 39%
Barometro: 1016 hPa
Condizioni: Sereno
Visibilità: superiore a 10 km
2019/07/24 01:50 LIRN 240150Z 05004KT CAVOK 26/11 Q1016 NOSIG
LIBD - Bari Palese, It
Distanza dalla Stazione: 594 km
Ultimo Aggiornamento: Mercoledì 24 Luglio 2019 03:50 CEST
Sereno
Sereno
 Wind from Nord-Ovest
Vento: Nord-Ovest 11 km/h
Temperatura: 25°C
Punto di Rugiada: 14°C
Umidità: 51%
Barometro: 1015 hPa
Condizioni: Sereno
Visibilità: superiore a 10 km
2019/07/24 01:50 LIBD 240150Z 31006KT CAVOK 25/14 Q1015
LIBG - Taranto Grottaglie, It
Distanza dalla Stazione: 670 km
Ultimo Aggiornamento: Martedì 23 Luglio 2019 19:50 CEST
Dati non Recenti
Sereno
Sereno
 Wind from Nord
Vento: Nord 17 km/h
Temperatura: 28°C
Heat Index: 28°C
Punto di Rugiada: 15°C
Umidità: 45%
Barometro: 1014 hPa
Condizioni: Sereno
Visibilità: superiore a 10 km
2019/07/23 17:50 LIBG 231750Z 36009KT CAVOK 28/15 Q1014
 
LICR - Reggio Calabria, It
Distanza dalla Stazione: 819 km
Ultimo Aggiornamento: Martedì 23 Luglio 2019 23:50 CEST
Dati non Recenti
Sereno
Sereno
 Wind from Nord
Vento: Nord 20 km/h
Temperatura: 26°C
Punto di Rugiada: 21°C
Umidità: 74%
Barometro: 1015 hPa
Condizioni: Sereno
Visibilità: superiore a 10 km
2019/07/23 21:50 LICR 232150Z 36011KT CAVOK 26/21 Q1015
LICJ - Palermo Punta Raisi, It
Distanza dalla Stazione: 762 km
Ultimo Aggiornamento: Mercoledì 24 Luglio 2019 03:50 CEST
Sereno
Sereno
 Wind from varies
Vento: variabile 2 km/h
Temperatura: 23°C
Punto di Rugiada: 21°C
Umidità: 89%
Barometro: 1015 hPa
Condizioni: Sereno
Visibilità: superiore a 10 km
2019/07/24 01:50 LICJ 240150Z VRB01KT CAVOK 23/21 Q1015
LICC - Catania Fontanarossa, It
Distanza dalla Stazione: 866 km
Ultimo Aggiornamento: Mercoledì 24 Luglio 2019 03:20 CEST
Sereno
Sereno
 Wind from Ovest
Vento: Ovest 9 km/h
Temperatura: 22°C
Punto di Rugiada: 19°C
Umidità: 83%
Barometro: 1014 hPa
Condizioni: Sereno
Visibilità: superiore a 10 km
2019/07/24 01:20 LICC 240120Z 26005KT CAVOK 22/19 Q1014
 
LIEE - Cagliari Elmas, It
Distanza dalla Stazione: 655 km
Ultimo Aggiornamento: Mercoledì 24 Luglio 2019 03:50 CEST
Sereno
Sereno
 Wind from Nord-Ovest
Vento: Nord-Ovest 4 km/h
Temperatura: 23°C
Punto di Rugiada: 16°C
Umidità: 65%
Barometro: 1015 hPa
Condizioni: Sereno
Visibilità: superiore a 10 km
2019/07/24 01:50 LIEE 240150Z 31002KT CAVOK 23/16 Q1015
LIEO - Olbia, It
Distanza dalla Stazione: 463 km
Ultimo Aggiornamento: Mercoledì 24 Luglio 2019 03:50 CEST
Sereno
Sereno
 Wind from varies
Vento: variabile 2 km/h
Temperatura: 20°C
Punto di Rugiada: 19°C
Umidità: 94%
Barometro: 1016 hPa
Condizioni: Sereno
Visibilità: superiore a 10 km
2019/07/24 01:50 LIEO 240150Z VRB01KT CAVOK 20/19 Q1016
LICG - Pantelleria, It
Distanza dalla Stazione: 893 km
Ultimo Aggiornamento: Martedì 23 Luglio 2019 19:50 CEST
Dati non Recenti
Sereno
Sereno
 Wind from Nord
Vento: Nord 11 km/h
Temperatura: 25°C
Punto di Rugiada: 23°C
Umidità: 89%
Barometro: 1017 hPa
Condizioni: Sereno
Visibilità: superiore a 10 km
2019/07/23 17:50 LICG 231750Z 01006KT CAVOK 25/23 Q1017